sensor_id;sensor_type;location;lat;lon;timestamp;temperature;humidity
44731;DHT22;30458;47.448;19.032;2022-07-21T00:02:11;25.50;63.90
44731;DHT22;30458;47.448;19.032;2022-07-21T00:12:12;25.80;62.90
44731;DHT22;30458;47.448;19.032;2022-07-21T00:22:13;25.70;63.00
44731;DHT22;30458;47.448;19.032;2022-07-21T00:32:13;25.50;63.40
44731;DHT22;30458;47.448;19.032;2022-07-21T00:42:25;25.70;63.50
44731;DHT22;30458;47.448;19.032;2022-07-21T00:52:31;25.70;63.00
44731;DHT22;30458;47.448;19.032;2022-07-21T01:02:33;25.60;64.00
44731;DHT22;30458;47.448;19.032;2022-07-21T01:12:37;25.50;64.70
44731;DHT22;30458;47.448;19.032;2022-07-21T01:22:42;25.40;65.20
44731;DHT22;30458;47.448;19.032;2022-07-21T01:32:46;25.30;65.60
44731;DHT22;30458;47.448;19.032;2022-07-21T01:42:46;25.20;65.50
44731;DHT22;30458;47.448;19.032;2022-07-21T01:52:59;25.30;65.60
44731;DHT22;30458;47.448;19.032;2022-07-21T02:02:59;25.30;66.40
44731;DHT22;30458;47.448;19.032;2022-07-21T02:13:03;25.20;66.60
44731;DHT22;30458;47.448;19.032;2022-07-21T02:23:04;24.90;67.10
44731;DHT22;30458;47.448;19.032;2022-07-21T02:33:07;24.60;67.20
44731;DHT22;30458;47.448;19.032;2022-07-21T02:43:11;24.50;67.30
44731;DHT22;30458;47.448;19.032;2022-07-21T02:53:19;24.40;68.00
44731;DHT22;30458;47.448;19.032;2022-07-21T03:03:25;24.40;67.40
44731;DHT22;30458;47.448;19.032;2022-07-21T03:13:30;24.30;68.20
44731;DHT22;30458;47.448;19.032;2022-07-21T03:23:30;24.20;69.10
44731;DHT22;30458;47.448;19.032;2022-07-21T03:33:31;24.00;69.10
44731;DHT22;30458;47.448;19.032;2022-07-21T03:43:32;24.10;69.00
44731;DHT22;30458;47.448;19.032;2022-07-21T03:53:36;24.30;68.40
44731;DHT22;30458;47.448;19.032;2022-07-21T04:03:37;24.60;67.90
44731;DHT22;30458;47.448;19.032;2022-07-21T04:13:37;25.10;68.00
44731;DHT22;30458;47.448;19.032;2022-07-21T04:23:41;25.60;67.20
44731;DHT22;30458;47.448;19.032;2022-07-21T04:33:42;26.10;66.40
44731;DHT22;30458;47.448;19.032;2022-07-21T04:43:45;26.80;66.50
44731;DHT22;30458;47.448;19.032;2022-07-21T04:53:48;27.50;66.30
44731;DHT22;30458;47.448;19.032;2022-07-21T05:03:51;28.00;66.10
44731;DHT22;30458;47.448;19.032;2022-07-21T05:13:52;28.70;66.50
44731;DHT22;30458;47.448;19.032;2022-07-21T05:23:58;29.70;63.60
44731;DHT22;30458;47.448;19.032;2022-07-21T05:33:59;30.40;62.70
44731;DHT22;30458;47.448;19.032;2022-07-21T05:44:00;31.20;61.60
44731;DHT22;30458;47.448;19.032;2022-07-21T05:54:01;32.00;58.10
44731;DHT22;30458;47.448;19.032;2022-07-21T06:04:04;32.90;56.40
44731;DHT22;30458;47.448;19.032;2022-07-21T06:14:05;33.70;54.60
44731;DHT22;30458;47.448;19.032;2022-07-21T06:24:08;34.10;54.10
44731;DHT22;30458;47.448;19.032;2022-07-21T06:34:10;34.40;53.10
44731;DHT22;30458;47.448;19.032;2022-07-21T06:44:11;34.90;52.70
44731;DHT22;30458;47.448;19.032;2022-07-21T06:54:11;35.20;52.30
44731;DHT22;30458;47.448;19.032;2022-07-21T07:04:15;35.60;52.20
44731;DHT22;30458;47.448;19.032;2022-07-21T07:14:16;35.50;51.90
44731;DHT22;30458;47.448;19.032;2022-07-21T07:24:16;34.60;53.10
44731;DHT22;30458;47.448;19.032;2022-07-21T07:34:20;34.50;54.10
44731;DHT22;30458;47.448;19.032;2022-07-21T07:44:25;34.40;53.70
44731;DHT22;30458;47.448;19.032;2022-07-21T07:54:26;34.20;53.90
44731;DHT22;30458;47.448;19.032;2022-07-21T08:04:27;33.80;54.90
44731;DHT22;30458;47.448;19.032;2022-07-21T08:14:30;33.60;55.10
44731;DHT22;30458;47.448;19.032;2022-07-21T08:24:33;33.80;55.00
44731;DHT22;30458;47.448;19.032;2022-07-21T08:34:37;34.20;53.90
44731;DHT22;30458;47.448;19.032;2022-07-21T08:44:40;34.40;53.60
44731;DHT22;30458;47.448;19.032;2022-07-21T08:54:41;34.00;53.70
44731;DHT22;30458;47.448;19.032;2022-07-21T09:04:43;34.00;53.80
44731;DHT22;30458;47.448;19.032;2022-07-21T09:14:46;34.00;53.80
44731;DHT22;30458;47.448;19.032;2022-07-21T09:24:51;34.20;52.70
44731;DHT22;30458;47.448;19.032;2022-07-21T09:34:55;34.20;52.40
44731;DHT22;30458;47.448;19.032;2022-07-21T09:45:03;34.10;52.20
44731;DHT22;30458;47.448;19.032;2022-07-21T09:55:10;34.20;53.20
44731;DHT22;30458;47.448;19.032;2022-07-21T10:05:19;33.90;52.20
44731;DHT22;30458;47.448;19.032;2022-07-21T10:15:23;34.00;53.10
44731;DHT22;30458;47.448;19.032;2022-07-21T10:25:24;33.90;54.40
44731;DHT22;30458;47.448;19.032;2022-07-21T10:35:30;34.10;52.80
44731;DHT22;30458;47.448;19.032;2022-07-21T10:45:39;34.10;53.40
44731;DHT22;30458;47.448;19.032;2022-07-21T10:55:54;34.00;52.90
44731;DHT22;30458;47.448;19.032;2022-07-21T11:16:14;33.90;52.40
44731;DHT22;30458;47.448;19.032;2022-07-21T11:26:17;33.90;53.00
44731;DHT22;30458;47.448;19.032;2022-07-21T11:36:23;34.00;53.70
44731;DHT22;30458;47.448;19.032;2022-07-21T11:46:27;34.20;53.10
44731;DHT22;30458;47.448;19.032;2022-07-21T11:56:36;34.30;52.30
44731;DHT22;30458;47.448;19.032;2022-07-21T12:06:39;34.30;52.10
44731;DHT22;30458;47.448;19.032;2022-07-21T12:16:58;34.10;52.30
44731;DHT22;30458;47.448;19.032;2022-07-21T12:27:10;34.10;52.30
44731;DHT22;30458;47.448;19.032;2022-07-21T12:37:11;34.10;52.80
44731;DHT22;30458;47.448;19.032;2022-07-21T12:47:17;34.10;52.10
44731;DHT22;30458;47.448;19.032;2022-07-21T12:57:19;34.20;52.00
44731;DHT22;30458;47.448;19.032;2022-07-21T13:07:20;34.20;51.50
44731;DHT22;30458;47.448;19.032;2022-07-21T13:17:23;34.30;51.40
44731;DHT22;30458;47.448;19.032;2022-07-21T13:27:24;34.40;51.20
44731;DHT22;30458;47.448;19.032;2022-07-21T13:37:25;34.50;50.40
44731;DHT22;30458;47.448;19.032;2022-07-21T13:47:28;34.60;50.40
44731;DHT22;30458;47.448;19.032;2022-07-21T13:57:29;34.60;50.30
44731;DHT22;30458;47.448;19.032;2022-07-21T14:07:30;34.60;50.20
44731;DHT22;30458;47.448;19.032;2022-07-21T14:17:36;34.60;49.10
44731;DHT22;30458;47.448;19.032;2022-07-21T14:27:37;34.70;48.90
44731;DHT22;30458;47.448;19.032;2022-07-21T14:37:37;34.70;49.30
44731;DHT22;30458;47.448;19.032;2022-07-21T14:47:38;34.80;49.20
44731;DHT22;30458;47.448;19.032;2022-07-21T14:57:40;34.80;49.70
44731;DHT22;30458;47.448;19.032;2022-07-21T15:07:41;34.90;49.00
44731;DHT22;30458;47.448;19.032;2022-07-21T15:17:44;34.80;50.10
44731;DHT22;30458;47.448;19.032;2022-07-21T15:27:45;34.80;47.00
44731;DHT22;30458;47.448;19.032;2022-07-21T15:37:47;34.80;47.00
44731;DHT22;30458;47.448;19.032;2022-07-21T15:47:48;34.80;47.70
44731;DHT22;30458;47.448;19.032;2022-07-21T15:57:49;34.70;47.80
44731;DHT22;30458;47.448;19.032;2022-07-21T16:07:54;34.70;47.90
44731;DHT22;30458;47.448;19.032;2022-07-21T16:17:59;34.80;47.70
44731;DHT22;30458;47.448;19.032;2022-07-21T16:28:00;34.70;47.00
44731;DHT22;30458;47.448;19.032;2022-07-21T16:38:01;34.70;46.80
44731;DHT22;30458;47.448;19.032;2022-07-21T16:48:08;34.70;46.90
44731;DHT22;30458;47.448;19.032;2022-07-21T16:58:08;34.60;47.90
44731;DHT22;30458;47.448;19.032;2022-07-21T17:08:09;34.50;48.70
44731;DHT22;30458;47.448;19.032;2022-07-21T17:18:15;34.40;49.40
44731;DHT22;30458;47.448;19.032;2022-07-21T17:28:18;34.30;49.50
44731;DHT22;30458;47.448;19.032;2022-07-21T17:38:19;34.20;49.70
44731;DHT22;30458;47.448;19.032;2022-07-21T17:48:20;34.00;50.40
44731;DHT22;30458;47.448;19.032;2022-07-21T17:58:26;34.00;50.70
44731;DHT22;30458;47.448;19.032;2022-07-21T18:08:47;33.80;50.90
44731;DHT22;30458;47.448;19.032;2022-07-21T18:18:49;33.60;51.50
44731;DHT22;30458;47.448;19.032;2022-07-21T18:28:54;33.40;52.20
44731;DHT22;30458;47.448;19.032;2022-07-21T18:38:55;33.20;53.90
44731;DHT22;30458;47.448;19.032;2022-07-21T18:48:56;33.00;52.80
44731;DHT22;30458;47.448;19.032;2022-07-21T18:58:56;32.80;54.10
44731;DHT22;30458;47.448;19.032;2022-07-21T19:08:58;32.70;53.10
44731;DHT22;30458;47.448;19.032;2022-07-21T19:19:02;32.50;53.10
44731;DHT22;30458;47.448;19.032;2022-07-21T19:29:03;32.40;52.70
44731;DHT22;30458;47.448;19.032;2022-07-21T19:39:04;32.40;52.70
44731;DHT22;30458;47.448;19.032;2022-07-21T19:49:08;32.40;52.40
44731;DHT22;30458;47.448;19.032;2022-07-21T19:59:12;32.20;53.20
44731;DHT22;30458;47.448;19.032;2022-07-21T20:09:15;32.00;53.60
44731;DHT22;30458;47.448;19.032;2022-07-21T20:19:16;31.80;53.40
44731;DHT22;30458;47.448;19.032;2022-07-21T20:29:20;31.70;53.90
44731;DHT22;30458;47.448;19.032;2022-07-21T20:39:23;31.50;53.90
44731;DHT22;30458;47.448;19.032;2022-07-21T20:49:26;31.50;54.10
44731;DHT22;30458;47.448;19.032;2022-07-21T20:59:27;31.40;54.30
44731;DHT22;30458;47.448;19.032;2022-07-21T21:09:29;31.30;56.00
44731;DHT22;30458;47.448;19.032;2022-07-21T21:19:30;31.10;57.40
44731;DHT22;30458;47.448;19.032;2022-07-21T21:29:34;30.90;58.40
44731;DHT22;30458;47.448;19.032;2022-07-21T21:39:35;30.80;55.20
44731;DHT22;30458;47.448;19.032;2022-07-21T21:49:36;30.70;59.20
44731;DHT22;30458;47.448;19.032;2022-07-21T21:59:43;30.40;59.80
44731;DHT22;30458;47.448;19.032;2022-07-21T22:09:44;30.10;59.60
44731;DHT22;30458;47.448;19.032;2022-07-21T22:19:46;29.80;60.00
44731;DHT22;30458;47.448;19.032;2022-07-21T22:29:49;29.50;60.90
44731;DHT22;30458;47.448;19.032;2022-07-21T22:39:55;29.40;61.00
44731;DHT22;30458;47.448;19.032;2022-07-21T22:49:57;29.20;62.00
44731;DHT22;30458;47.448;19.032;2022-07-21T22:59:57;29.00;62.10
44731;DHT22;30458;47.448;19.032;2022-07-21T23:09:58;28.80;62.50
44731;DHT22;30458;47.448;19.032;2022-07-21T23:19:59;28.60;63.10
44731;DHT22;30458;47.448;19.032;2022-07-21T23:30:00;28.40;63.40
44731;DHT22;30458;47.448;19.032;2022-07-21T23:40:02;28.20;62.80
44731;DHT22;30458;47.448;19.032;2022-07-21T23:50:03;28.10;64.00
